Galbraith, Louisiana
Current Conditions -  °F | °C
As of 9:53 AM on Sunday 21 Dec 2014 (Local Time) from KAEX Reporting Station
Clear Clear  
Wind Chill: 46°   Ceiling: Unl
Heat Index: 49°   Visibility: 10mi
Dew Point: 44°   Wind: 7mph
Humidity: 83%   Direction: 110°ESE
Pressure: 30.13"   Gusts: NA
Location:  31.4254°N, 92.7765°W
Report Text: KAEX 211553Z 11006KT 10SM CLR 09/07 A3013 RMK AO2 SLP207 T00940067
Loading
Personal Weather Stations






























Interactive Weather Map New forecast layout! Learn more

10-Day Weather Forecast

Advertisements
Track Severe Weather on mobile